Time;durP1;ratioP1;P1;durP2;ratioP2;P2;SDS_P1;SDS_P2;PMS_P1;PMS_P2;Temp;Humidity;BMP_temperature;BMP_pressure;BME280_temperature;BME280_humidity;BME280_pressure;Samples;Min_cycle;Max_cycle;Signal;HPM_P1;HPM_P2
2020/12/12 00:13:17;;;;;;;15.13;10.13;;;5.30;90.70;;;;;;4921882;29;20035;-88
2020/12/12 00:15:43;;;;;;;14.48;9.85;;;5.30;90.50;;;;;;4971538;28;20045;-89
2020/12/12 00:18:09;;;;;;;14.45;10.35;;;5.30;90.50;;;;;;5022463;28;20021;-88
2020/12/12 00:20:41;;;;;;;14.68;10.80;;;5.40;90.50;;;;;;5021927;28;20033;-87
2020/12/12 00:23:21;;;;;;;13.57;9.90;;;5.50;90.50;;;;;;5032025;28;20017;-88
2020/12/12 00:25:54;;;;;;;18.15;13.15;;;5.40;90.40;;;;;;5037760;28;20045;-87
2020/12/12 00:46:46;;;;;;;;;;;;;;;;;;;;;
2020/12/12 00:49:38;;;;;;;10.13;7.07;;;5.50;90.40;;;;;;5050186;28;20025;-87
2020/12/12 00:55:32;;;;;;;11.77;7.80;;;5.50;90.40;;;;;;5018426;28;20036;-88
2020/12/12 00:58:09;;;;;;;9.57;6.63;;;5.50;90.40;;;;;;5041585;28;20077;-88
2020/12/12 01:01:30;;;;;;;14.48;10.18;;;5.50;90.40;;;;;;5033414;28;20044;-88
2020/12/12 01:07:59;;;;;;;;;;;;;;;;;;;;;
2020/12/12 01:11:03;;;;;;;;;;;;;;;;;;;;;
2020/12/12 01:13:44;;;;;;;10.90;7.65;;;5.60;90.50;;;;;;5066007;28;20041;-88
2020/12/12 01:56:12;;;;;;;;;;;;;;;;;;;;;
2020/12/12 02:01:49;;;;;;;16.05;10.75;;;5.60;90.70;;;;;;4938573;29;20090;-88
2020/12/12 02:04:38;;;;;;;13.50;9.88;;;5.60;90.70;;;;;;4912825;29;20413;-88
2020/12/12 02:19:04;;;;;;;;;;;;;;;;;;;;;
2020/12/12 02:21:32;;;;;;;;;;;5.60;90.70;;;;;;4935343;28;20082;-88
2020/12/12 02:24:16;;;;;;;17.02;10.85;;;5.60;90.60;;;;;;5013517;28;19909;-88
2020/12/12 02:27:21;;;;;;;15.98;10.68;;;5.70;90.70;;;;;;4996269;28;20026;-88
2020/12/12 02:37:45;;;;;;;;;;;;;;;;;;;;;
2020/12/12 02:40:17;;;;;;;15.90;10.52;;;5.70;90.70;;;;;;4885138;29;20063;-88
2020/12/12 02:53:35;;;;;;;14.88;10.00;;;5.70;90.60;;;;;;5008065;28;20049;-89
2020/12/12 04:21:37;;;;;;;;;;;;;;;;;;;;;
2020/12/12 04:53:40;;;;;;;13.20;8.35;;;6.20;90.40;;;;;;5038972;28;20103;-88
2020/12/12 04:56:21;;;;;;;;;;;;;;;;;;;;;
2020/12/12 04:59:15;;;;;;;12.93;8.67;;;6.10;90.40;;;;;;5035536;28;20456;-87
2020/12/12 05:01:56;;;;;;;11.98;8.25;;;6.10;90.40;;;;;;5007202;28;20299;-87
2020/12/12 05:12:14;;;;;;;;;;;;;;;;;;;;;
2020/12/12 05:14:50;;;;;;;10.68;7.20;;;6.20;90.40;;;;;;5028205;28;20570;-87
2020/12/12 05:28:59;;;;;;;;;;;6.20;90.40;;;;;;4942741;29;20037;-87
2020/12/12 05:39:05;;;;;;;;;;;;;;;;;;;;;
2020/12/12 05:45:59;;;;;;;18.95;12.07;;;6.20;90.40;;;;;;4829695;29;20076;-87
2020/12/12 05:52:38;;;;;;;;;;;;;;;;;;;;;
2020/12/12 06:02:57;;;;;;;13.95;9.43;;;6.20;90.50;;;;;;4804627;29;20067;-87
2020/12/12 06:05:37;;;;;;;;;;;;;;;;;;;;;
2020/12/12 06:11:29;;;;;;;9.80;6.95;;;6.30;90.50;;;;;;4984960;28;20051;-87
2020/12/12 06:14:37;;;;;;;13.73;9.88;;;6.30;90.50;;;;;;4988170;28;20105;-88
2020/12/12 06:17:49;;;;;;;16.60;10.00;;;6.30;90.40;;;;;;4998682;28;20027;-88
2020/12/12 06:21:04;;;;;;;13.98;9.70;;;6.40;90.40;;;;;;5001361;28;20041;-87
2020/12/12 06:23:41;;;;;;;9.73;6.90;;;6.40;90.40;;;;;;4975338;28;20058;-86
2020/12/12 06:26:14;;;;;;;9.75;6.57;;;6.50;90.40;;;;;;5002852;28;20038;-88
2020/12/12 06:28:47;;;;;;;;;;;6.40;90.40;;;;;;4982722;28;20395;-89
2020/12/12 06:31:35;;;;;;;11.73;8.25;;;6.60;90.40;;;;;;4967029;28;20335;-86
2020/12/12 06:37:00;;;;;;;8.43;5.57;;;6.40;90.40;;;;;;4970771;28;20034;-87
2020/12/12 06:40:01;;;;;;;;;;;;;;;;;;;;;
2020/12/12 06:43:15;;;;;;;11.52;6.45;;;6.50;90.40;;;;;;4993692;28;20042;-85
2020/12/12 06:46:14;;;;;;;7.93;5.97;;;6.50;90.40;;;;;;4964152;28;20038;-87
2020/12/12 06:48:51;;;;;;;9.02;6.00;;;6.50;90.40;;;;;;4966524;28;20038;-86
2020/12/12 06:51:47;;;;;;;6.80;5.22;;;6.50;90.40;;;;;;4964228;28;20051;-87
2020/12/12 06:54:42;;;;;;;9.27;6.63;;;6.50;90.40;;;;;;4972025;28;20428;-87
2020/12/12 06:57:52;;;;;;;7.38;5.43;;;6.60;90.40;;;;;;4979187;28;20034;-87
2020/12/12 07:02:09;;;;;;;8.02;5.75;;;6.60;90.40;;;;;;4977146;28;20026;-88
2020/12/12 07:35:29;;;;;;;6.68;4.72;;;7.00;90.10;;;;;;5032565;28;20049;-89
2020/12/12 07:38:02;;;;;;;;;;;7.00;90.00;;;;;;5034356;28;20033;-89
2020/12/12 07:40:35;;;;;;;5.22;3.92;;;7.10;90.00;;;;;;5028769;28;19909;-88
2020/12/12 07:43:07;;;;;;;;;;;7.10;90.00;;;;;;5003957;28;20034;-88
2020/12/12 07:48:17;;;;;;;7.18;4.10;;;7.00;90.00;;;;;;5026893;28;20103;-87
2020/12/12 07:50:43;;;;;;;12.55;5.20;;;7.00;89.90;;;;;;5019456;28;20030;-87
2020/12/12 07:53:10;;;;;;;13.18;6.95;;;7.00;90.00;;;;;;5009257;28;20116;-88
2020/12/12 07:55:54;;;;;;;13.10;6.07;;;7.10;90.00;;;;;;5013054;28;20167;-87
2020/12/12 07:58:26;;;;;;;8.25;5.43;;;7.00;90.30;;;;;;5006760;28;20526;-86
2020/12/12 08:01:00;;;;;;;9.90;5.35;;;7.00;90.00;;;;;;5008136;28;20022;-87
2020/12/12 08:03:25;;;;;;;11.10;5.75;;;6.90;90.10;;;;;;5017664;28;20113;-87
2020/12/12 08:06:07;;;;;;;18.80;5.80;;;6.90;90.10;;;;;;5026654;28;20742;-91
2020/12/12 08:08:34;;;;;;;13.80;5.25;;;6.90;90.10;;;;;;5006062;28;20453;-87
2020/12/12 08:11:04;;;;;;;12.88;5.53;;;6.90;90.10;;;;;;5024513;28;20479;-87
2020/12/12 08:13:32;;;;;;;15.57;5.63;;;7.00;90.10;;;;;;5023398;28;20021;-87
2020/12/12 08:18:40;;;;;;;10.98;5.30;;;7.00;90.10;;;;;;5023571;28;20037;-86
2020/12/12 08:21:19;;;;;;;10.52;6.05;;;7.00;90.10;;;;;;5027166;28;20034;-86
2020/12/12 08:23:48;;;;;;;26.85;8.13;;;6.90;90.10;;;;;;5011807;28;20124;-87
2020/12/12 08:26:19;;;;;;;21.20;6.68;;;6.90;90.20;;;;;;5006592;28;20117;-87
2020/12/12 08:28:45;;;;;;;12.82;6.25;;;6.90;90.20;;;;;;5007103;28;20034;-87
2020/12/12 08:31:19;;;;;;;18.00;6.53;;;6.90;90.20;;;;;;5003340;28;20037;-88
2020/12/12 08:34:01;;;;;;;12.90;6.45;;;7.00;90.30;;;;;;5019560;28;20108;-87
2020/12/12 08:36:29;;;;;;;9.02;5.45;;;7.00;90.20;;;;;;5003591;28;20048;-89
2020/12/12 08:39:00;;;;;;;8.60;4.35;;;7.00;90.20;;;;;;5015661;28;20034;-89
2020/12/12 08:41:37;;;;;;;25.13;8.43;;;7.00;90.20;;;;;;5000304;28;20700;-87
2020/12/12 08:54:58;;;;;;;20.15;8.15;;;7.10;90.20;;;;;;5715858;22;20024;-93
2020/12/12 08:57:33;;;;;;;32.80;9.32;;;6.90;90.20;;;;;;5059297;28;20101;-89
2020/12/12 09:00:27;;;;;;;16.17;7.45;;;7.10;90.20;;;;;;5031211;28;20040;-95
2020/12/12 09:03:08;;;;;;;8.38;5.55;;;7.20;90.30;;;;;;5046765;28;20055;-95
2020/12/12 09:06:20;;;;;;;10.00;6.00;;;7.20;90.30;;;;;;5041938;28;20013;-96
2020/12/12 09:08:47;;;;;;;16.65;9.70;;;7.20;90.30;;;;;;5011863;28;20029;-96
2020/12/12 09:11:59;;;;;;;;;;;;;;;;;;;;;
2020/12/12 09:15:29;;;;;;;9.90;5.68;;;7.20;90.30;;;;;;5035168;28;20129;-95
2020/12/12 09:18:00;;;;;;;18.25;8.18;;;7.30;90.20;;;;;;5055710;28;20545;-96
2020/12/12 09:20:29;;;;;;;18.65;7.15;;;7.20;90.10;;;;;;5059931;28;20099;-96
2020/12/12 09:23:28;;;;;;;13.85;7.93;;;7.30;90.20;;;;;;5066822;28;20077;-96
2020/12/12 09:26:19;;;;;;;12.50;7.70;;;7.30;90.20;;;;;;5032396;28;20041;-96
2020/12/12 09:28:45;;;;;;;14.60;8.27;;;7.30;90.20;;;;;;5056697;28;20035;-96
2020/12/12 09:31:17;;;;;;;13.35;7.28;;;7.30;90.20;;;;;;5059121;28;20032;-96
2020/12/12 09:33:48;;;;;;;18.02;8.43;;;7.40;90.20;;;;;;5062755;28;20050;-96
2020/12/12 09:36:17;;;;;;;18.88;10.20;;;7.30;90.10;;;;;;5064522;28;20057;-94
2020/12/12 09:38:53;;;;;;;23.17;9.65;;;7.30;90.20;;;;;;5046985;28;20025;-95
2020/12/12 09:56:27;;;;;;;13.73;9.38;;;7.40;90.20;;;;;;5077154;22;20076;-95
2020/12/12 09:58:52;;;;;;;46.30;15.75;;;7.40;90.20;;;;;;5060421;28;20079;-96
2020/12/12 10:01:18;;;;;;;15.10;9.05;;;7.30;90.20;;;;;;5069485;28;20064;-96
2020/12/12 10:03:44;;;;;;;17.02;7.93;;;7.40;90.30;;;;;;5066650;28;20013;-96
2020/12/12 10:06:10;;;;;;;13.63;8.32;;;7.40;90.30;;;;;;5051079;28;20006;-96
2020/12/12 10:08:36;;;;;;;14.38;7.55;;;7.50;90.30;;;;;;5058624;28;20060;-94
2020/12/12 10:11:03;;;;;;;17.50;8.90;;;7.50;90.20;;;;;;5164156;22;20095;-95
2020/12/12 10:13:28;;;;;;;11.70;6.85;;;7.70;90.30;;;;;;5118992;28;20016;-96
2020/12/12 10:15:54;;;;;;;8.05;5.13;;;7.50;90.20;;;;;;5116963;28;20012;-95
2020/12/12 10:18:20;;;;;;;14.50;7.80;;;7.50;90.20;;;;;;5105653;28;20042;-96
2020/12/12 10:20:45;;;;;;;8.73;5.15;;;7.70;90.20;;;;;;5112430;28;20012;-96
2020/12/12 10:23:11;;;;;;;37.13;12.40;;;7.70;90.20;;;;;;5089932;28;20039;-96
2020/12/12 10:25:40;;;;;;;22.63;6.85;;;7.80;90.20;;;;;;5109176;28;20020;-96
2020/12/12 10:28:07;;;;;;;13.30;7.97;;;7.70;90.10;;;;;;5110738;28;20030;-96
2020/12/12 10:30:34;;;;;;;15.13;9.65;;;7.70;90.10;;;;;;5108006;28;20062;-95
2020/12/12 10:33:00;;;;;;;12.63;6.78;;;7.70;90.10;;;;;;5095268;28;20035;-94
2020/12/12 10:35:28;;;;;;;14.88;8.32;;;7.80;90.10;;;;;;5088379;28;20032;-90
2020/12/12 10:37:55;;;;;;;6.95;4.35;;;7.80;90.10;;;;;;5088074;28;20057;-93
2020/12/12 10:40:33;;;;;;;19.77;9.32;;;7.90;90.10;;;;;;5212931;22;20033;-94
2020/12/12 10:43:01;;;;;;;21.58;8.82;;;8.00;90.10;;;;;;5040470;28;20036;-92
2020/12/12 10:45:29;;;;;;;16.38;8.55;;;7.90;90.00;;;;;;5064376;28;20035;-94
2020/12/12 10:47:54;;;;;;;16.13;7.78;;;7.90;90.00;;;;;;5028752;28;20029;-94
2020/12/12 10:50:29;;;;;;;18.15;8.90;;;8.00;90.00;;;;;;5057795;28;20027;-96
2020/12/12 10:52:55;;;;;;;15.82;8.30;;;7.90;90.00;;;;;;5056688;28;20028;-96
2020/12/12 10:55:20;;;;;;;16.85;7.55;;;7.90;90.00;;;;;;5059365;28;20049;-95
2020/12/12 10:57:46;;;;;;;19.30;9.43;;;7.90;90.00;;;;;;5018445;28;20025;-96
2020/12/12 11:00:13;;;;;;;12.88;6.95;;;7.90;90.00;;;;;;5038718;28;20025;-95
2020/12/12 11:02:39;;;;;;;53.17;10.65;;;7.90;90.10;;;;;;5073065;28;20059;-95
2020/12/12 11:05:05;;;;;;;18.13;8.93;;;7.90;90.10;;;;;;5059893;28;20117;-96
2020/12/12 11:07:31;;;;;;;18.38;8.18;;;7.90;90.10;;;;;;5081986;28;20029;-95
2020/12/12 11:09:56;;;;;;;14.75;7.40;;;7.90;90.10;;;;;;5064055;28;20028;-96
2020/12/12 11:12:22;;;;;;;15.88;8.55;;;8.00;90.10;;;;;;5087377;28;20025;-95
2020/12/12 11:14:52;;;;;;;16.02;9.02;;;8.00;90.00;;;;;;5080219;28;20031;-96
2020/12/12 11:17:18;;;;;;;14.68;7.88;;;8.00;90.10;;;;;;5084610;28;20021;-96
2020/12/12 11:19:46;;;;;;;15.35;8.15;;;8.00;90.10;;;;;;5084186;28;20081;-96
2020/12/12 11:22:14;;;;;;;10.63;5.80;;;8.10;90.10;;;;;;5072545;28;20021;-96
2020/12/12 11:24:49;;;;;;;12.50;6.93;;;8.10;90.00;;;;;;5073870;28;20043;-96
2020/12/12 11:27:18;;;;;;;15.32;7.55;;;8.20;90.10;;;;;;5062578;28;20072;-96
2020/12/12 11:29:49;;;;;;;15.27;8.10;;;8.20;90.00;;;;;;5069442;28;20005;-95
2020/12/12 11:32:14;;;;;;;19.10;8.18;;;8.20;90.00;;;;;;5209729;22;20134;-96
2020/12/12 11:34:44;;;;;;;21.67;9.75;;;8.40;90.00;;;;;;5070317;28;20019;-96
2020/12/12 11:40:42;;;;;;;15.65;7.80;;;8.30;89.80;;;;;;5052493;28;20036;-96
2020/12/12 11:53:37;;;;;;;29.73;12.63;;;8.50;89.80;;;;;;5353672;22;20072;-96
2020/12/12 11:56:02;;;;;;;16.77;7.40;;;8.50;89.60;;;;;;5058126;28;20051;-96
2020/12/12 11:58:28;;;;;;;16.90;7.80;;;8.50;89.50;;;;;;5047667;28;20044;-96
2020/12/12 12:00:59;;;;;;;22.42;10.23;;;8.50;89.50;;;;;;5034549;28;20540;-96
2020/12/12 12:03:27;;;;;;;31.60;13.80;;;8.60;89.50;;;;;;5050548;28;20020;-96
2020/12/12 12:06:03;;;;;;;32.38;13.93;;;8.60;89.50;;;;;;5067992;28;20056;-96
2020/12/12 12:16:20;;;;;;;16.38;7.32;;;8.60;89.40;;;;;;5487498;22;20044;-96
2020/12/12 12:19:11;;;;;;;13.93;7.88;;;8.70;89.40;;;;;;5074454;28;20021;-96
2020/12/12 12:21:48;;;;;;;17.05;8.32;;;8.70;89.40;;;;;;5074623;28;20053;-96
2020/12/12 12:24:33;;;;;;;14.02;7.05;;;8.80;89.40;;;;;;5057407;28;20019;-96
2020/12/12 12:32:27;;;;;;;21.25;9.73;;;8.80;89.20;;;;;;5068528;22;20395;-96
2020/12/12 12:34:53;;;;;;;19.83;7.57;;;8.80;89.20;;;;;;5035718;28;20025;-96
2020/12/12 12:37:19;;;;;;;22.17;10.60;;;8.90;89.30;;;;;;5034841;28;20055;-96
2020/12/12 12:39:44;;;;;;;18.33;7.72;;;8.90;89.20;;;;;;5029324;28;20027;-95
2020/12/12 12:42:10;;;;;;;130.02;12.07;;;8.80;89.20;;;;;;5057613;28;20005;-96
2020/12/12 12:44:45;;;;;;;23.65;8.30;;;8.80;89.30;;;;;;5038233;28;20036;-96
2020/12/12 12:47:10;;;;;;;8.55;5.43;;;8.90;89.40;;;;;;5036817;28;20025;-96
2020/12/12 12:49:36;;;;;;;16.02;8.40;;;8.90;89.30;;;;;;5056713;28;20021;-96
2020/12/12 12:52:16;;;;;;;;;;;;;;;;;;;;;
2020/12/12 12:54:43;;;;;;;61.50;10.05;;;8.90;89.40;;;;;;5185898;22;20068;-95
2020/12/12 12:57:09;;;;;;;10.18;6.40;;;9.00;89.40;;;;;;5198375;22;20020;-89
2020/12/12 12:59:34;;;;;;;40.75;12.18;;;9.10;89.40;;;;;;5079077;28;20141;-93
2020/12/12 13:02:01;;;;;;;11.93;6.57;;;9.10;89.30;;;;;;5077299;28;20037;-94
2020/12/12 13:04:27;;;;;;;15.13;6.32;;;9.10;89.30;;;;;;5061898;28;20052;-91
2020/12/12 13:06:52;;;;;;;23.08;8.50;;;9.10;89.20;;;;;;5079362;28;20016;-91
2020/12/12 13:09:18;;;;;;;17.50;7.13;;;9.10;89.20;;;;;;5044657;28;20080;-92
2020/12/12 13:11:44;;;;;;;40.10;12.50;;;9.10;89.20;;;;;;5070834;28;20051;-92
2020/12/12 13:14:09;;;;;;;48.15;11.55;;;9.20;89.30;;;;;;5068433;28;20013;-94
2020/12/12 13:16:35;;;;;;;17.20;8.02;;;9.10;89.20;;;;;;5055628;28;20216;-94
2020/12/12 13:22:04;;;;;;;52.75;12.00;;;9.10;89.30;;;;;;5026276;28;20044;-93
2020/12/12 13:24:34;;;;;;;33.83;12.57;;;9.10;89.30;;;;;;5020829;28;20009;-93
2020/12/12 13:27:00;;;;;;;39.80;12.98;;;9.10;89.30;;;;;;5037459;28;20710;-93
2020/12/12 13:32:10;;;;;;;19.13;9.10;;;9.10;89.40;;;;;;5044414;28;20126;-92
2020/12/12 13:34:35;;;;;;;18.73;9.23;;;9.10;89.50;;;;;;5040423;28;20053;-94
2020/12/12 13:37:01;;;;;;;29.80;8.13;;;9.10;89.50;;;;;;5037855;28;20033;-94
2020/12/12 13:39:27;;;;;;;25.98;11.23;;;9.10;89.50;;;;;;5037712;28;20068;-93
2020/12/12 13:41:52;;;;;;;14.65;8.13;;;9.10;89.50;;;;;;5036677;28;20120;-94
2020/12/12 13:44:18;;;;;;;18.02;8.95;;;9.10;89.60;;;;;;5041214;28;20103;-90
2020/12/12 13:46:45;;;;;;;15.32;8.85;;;9.10;89.60;;;;;;5036046;28;20033;-91
2020/12/12 13:49:10;;;;;;;33.08;14.52;;;9.20;89.60;;;;;;5042622;28;20111;-92
2020/12/12 13:51:36;;;;;;;16.65;8.05;;;9.20;89.60;;;;;;5036137;28;20123;-92
2020/12/12 13:54:01;;;;;;;23.00;8.43;;;9.20;89.60;;;;;;5038946;28;20028;-92
2020/12/12 13:56:27;;;;;;;12.75;6.40;;;9.30;89.70;;;;;;5033894;28;20014;-93
2020/12/12 13:58:52;;;;;;;19.70;6.80;;;9.30;89.60;;;;;;5042405;28;20043;-92
2020/12/12 14:01:18;;;;;;;12.70;6.78;;;9.30;89.60;;;;;;5044559;28;20037;-93
2020/12/12 14:03:45;;;;;;;20.23;7.25;;;9.30;89.60;;;;;;5045953;28;20063;-92
2020/12/12 14:06:13;;;;;;;24.38;8.93;;;9.40;89.60;;;;;;5053444;28;20052;-93
2020/12/12 14:25:18;;;;;;;51.50;12.77;;;9.40;89.70;;;;;;5025321;28;20152;-93
2020/12/12 14:30:27;;;;;;;26.25;8.48;;;9.40;89.90;;;;;;5040721;28;20099;-93
2020/12/12 14:32:53;;;;;;;88.18;13.13;;;9.40;89.90;;;;;;5035514;28;20403;-93
2020/12/12 14:35:20;;;;;;;22.45;8.82;;;9.40;89.90;;;;;;5034175;28;20025;-93
2020/12/12 14:37:47;;;;;;;42.95;12.23;;;9.40;89.90;;;;;;5016935;28;20032;-92
2020/12/12 14:40:12;;;;;;;52.92;12.15;;;9.40;90.00;;;;;;5040653;28;20021;-93
2020/12/12 14:42:38;;;;;;;19.95;8.32;;;9.40;90.00;;;;;;5014255;28;20144;-95
2020/12/12 14:45:04;;;;;;;46.50;13.20;;;9.40;90.00;;;;;;5018196;28;20665;-93
2020/12/12 14:47:30;;;;;;;24.70;10.98;;;9.40;89.90;;;;;;5034191;28;20041;-92
2020/12/12 14:49:56;;;;;;;81.15;16.30;;;9.40;89.90;;;;;;5033986;28;20163;-93
2020/12/12 14:52:22;;;;;;;36.70;12.40;;;9.40;90.00;;;;;;5030879;28;20100;-94
2020/12/12 14:54:48;;;;;;;36.25;13.18;;;9.40;90.00;;;;;;5030504;28;20063;-95
2020/12/12 14:57:21;;;;;;;33.50;10.93;;;9.40;90.00;;;;;;5039412;28;20431;-93
2020/12/12 14:59:53;;;;;;;33.83;12.23;;;9.40;90.00;;;;;;5025586;28;20518;-93
2020/12/12 15:02:22;;;;;;;36.47;13.13;;;9.50;90.00;;;;;;5039321;28;20033;-95
2020/12/12 15:04:49;;;;;;;37.03;10.45;;;9.50;90.00;;;;;;5040941;28;20044;-94
2020/12/12 15:07:17;;;;;;;29.95;10.73;;;9.50;90.00;;;;;;5043298;28;20006;-94
2020/12/12 15:09:43;;;;;;;21.45;9.07;;;9.50;90.00;;;;;;5040200;28;20029;-92
2020/12/12 15:12:09;;;;;;;29.48;10.75;;;9.50;90.00;;;;;;5040130;28;20033;-94
2020/12/12 15:14:34;;;;;;;30.95;11.95;;;9.70;90.00;;;;;;5040081;28;20043;-95
2020/12/12 15:17:00;;;;;;;54.53;14.88;;;9.60;90.00;;;;;;5039699;28;20109;-95
2020/12/12 15:19:27;;;;;;;21.10;9.38;;;9.60;90.00;;;;;;5021518;28;21106;-95
2020/12/12 15:21:53;;;;;;;23.05;9.25;;;9.60;90.00;;;;;;5037649;28;20025;-94
2020/12/12 15:24:19;;;;;;;46.30;12.88;;;9.60;90.00;;;;;;5038320;28;20017;-90
2020/12/12 15:26:46;;;;;;;35.22;13.15;;;9.60;90.00;;;;;;5037911;28;20039;-92
2020/12/12 15:29:13;;;;;;;37.78;15.10;;;9.60;90.00;;;;;;5025126;28;20029;-91
2020/12/12 15:31:39;;;;;;;45.03;16.25;;;9.70;90.00;;;;;;5024562;28;20124;-91
2020/12/12 15:34:05;;;;;;;44.55;21.67;;;9.60;89.90;;;;;;5035719;28;20025;-90
2020/12/12 15:36:31;;;;;;;55.33;21.80;;;9.60;89.90;;;;;;5038570;28;20032;-90
2020/12/12 15:38:57;;;;;;;33.95;15.27;;;9.60;90.00;;;;;;5042824;28;20459;-90
2020/12/12 15:41:26;;;;;;;43.60;17.63;;;9.60;90.00;;;;;;5047624;28;20045;-92
2020/12/12 15:43:59;;;;;;;58.65;22.17;;;9.60;90.00;;;;;;5036018;28;20041;-92
2020/12/12 15:46:39;;;;;;;;;;;9.60;90.00;;;;;;5049780;28;20037;-92
2020/12/12 15:49:20;;;;;;;38.30;14.25;;;9.70;90.00;;;;;;5044977;28;19905;-93
2020/12/12 15:51:45;;;;;;;26.58;10.82;;;9.60;90.00;;;;;;5041895;28;20037;-90
2020/12/12 15:54:14;;;;;;;44.08;16.17;;;9.70;90.00;;;;;;5041789;28;20570;-92
2020/12/12 15:56:42;;;;;;;49.08;18.75;;;9.70;90.00;;;;;;5045645;28;20490;-92
2020/12/12 15:59:13;;;;;;;54.00;17.77;;;9.70;90.00;;;;;;5048204;28;20083;-90
2020/12/12 16:01:40;;;;;;;50.05;18.17;;;9.70;90.00;;;;;;5052841;28;20014;-91
2020/12/12 16:04:06;;;;;;;39.13;13.52;;;9.70;90.00;;;;;;5055021;28;20049;-90
2020/12/12 16:06:32;;;;;;;24.55;10.77;;;9.70;90.00;;;;;;5047643;28;20029;-92
2020/12/12 16:09:00;;;;;;;28.33;13.95;;;9.80;90.00;;;;;;5022500;28;20029;-91
2020/12/12 16:11:27;;;;;;;30.27;11.75;;;9.80;90.00;;;;;;5050181;28;20093;-90
2020/12/12 16:13:54;;;;;;;40.53;15.00;;;9.80;90.00;;;;;;5052067;28;20021;-89
2020/12/12 16:16:20;;;;;;;21.77;10.27;;;9.90;90.00;;;;;;5047578;28;20044;-87
2020/12/12 16:18:46;;;;;;;57.70;18.35;;;9.80;89.90;;;;;;5026977;28;20017;-89
2020/12/12 16:21:13;;;;;;;24.23;10.93;;;9.80;89.90;;;;;;5025707;28;20041;-90
2020/12/12 16:23:40;;;;;;;55.17;29.90;;;9.80;90.00;;;;;;5023679;28;20021;-91
2020/12/12 16:26:08;;;;;;;41.88;17.92;;;9.90;90.00;;;;;;5044173;28;20029;-89
2020/12/12 16:28:34;;;;;;;30.50;12.70;;;9.80;90.00;;;;;;5041828;28;20025;-92
2020/12/12 16:31:00;;;;;;;21.30;9.52;;;9.80;90.00;;;;;;5108984;22;20042;-90
2020/12/12 16:33:27;;;;;;;41.78;14.57;;;9.90;90.00;;;;;;5071172;22;20490;-91
2020/12/12 16:35:55;;;;;;;34.55;14.35;;;9.90;90.00;;;;;;5055510;28;20467;-95
2020/12/12 16:38:21;;;;;;;43.63;17.65;;;9.80;90.00;;;;;;5034229;28;20087;-96
2020/12/12 16:40:47;;;;;;;41.10;16.38;;;10.00;90.00;;;;;;5043395;28;20025;-94
2020/12/12 16:43:14;;;;;;;33.10;12.45;;;9.80;90.00;;;;;;5157618;22;20037;-95
2020/12/12 16:45:42;;;;;;;58.90;17.23;;;9.80;90.00;;;;;;5039998;28;20030;-93
2020/12/12 16:48:14;;;;;;;47.42;16.83;;;9.80;90.00;;;;;;5029560;28;20026;-94
2020/12/12 16:50:40;;;;;;;57.53;19.40;;;9.80;90.00;;;;;;5010913;28;20157;-89
2020/12/12 16:53:07;;;;;;;36.35;15.15;;;9.80;90.10;;;;;;5003792;28;20041;-93
2020/12/12 16:55:36;;;;;;;30.95;12.45;;;9.80;90.10;;;;;;5029030;28;20015;-94
2020/12/12 16:58:07;;;;;;;36.50;13.77;;;9.80;90.00;;;;;;4997461;28;20137;-95
2020/12/12 17:00:39;;;;;;;28.33;11.77;;;9.90;90.10;;;;;;5035166;28;20038;-96
2020/12/12 17:03:05;;;;;;;43.60;13.55;;;9.90;90.10;;;;;;5069117;22;20118;-96
2020/12/12 17:05:32;;;;;;;23.93;12.23;;;10.00;90.00;;;;;;4929948;22;8203017;-96
2020/12/12 17:07:58;;;;;;;57.40;18.65;;;9.90;90.00;;;;;;5041565;28;20295;-96
2020/12/12 17:10:25;;;;;;;41.08;19.60;;;9.90;90.00;;;;;;5044713;28;20013;-96
2020/12/12 17:12:55;;;;;;;118.75;71.57;;;9.80;90.00;;;;;;5030386;28;20040;-90
2020/12/12 17:15:21;;;;;;;63.40;34.95;;;9.90;90.10;;;;;;5049694;28;20052;-90
2020/12/12 17:17:48;;;;;;;50.28;30.63;;;9.90;90.10;;;;;;5049285;28;20033;-91
2020/12/12 17:20:19;;;;;;;55.67;27.85;;;9.90;90.10;;;;;;5031809;28;20029;-90
2020/12/12 17:22:46;;;;;;;63.28;33.63;;;9.90;90.10;;;;;;5012386;28;20417;-91
2020/12/12 17:25:13;;;;;;;74.75;31.70;;;9.90;90.10;;;;;;5037001;28;20056;-92
2020/12/12 17:27:41;;;;;;;60.35;33.55;;;9.90;90.10;;;;;;5041655;28;20030;-92
2020/12/12 17:30:10;;;;;;;39.95;20.08;;;9.90;90.10;;;;;;5051385;28;20017;-91
2020/12/12 17:32:40;;;;;;;43.25;17.88;;;10.00;90.10;;;;;;5041149;28;20029;-92
2020/12/12 17:35:07;;;;;;;32.85;17.15;;;10.00;90.10;;;;;;5034811;28;20041;-90
2020/12/12 17:37:37;;;;;;;52.75;23.08;;;10.00;90.10;;;;;;5030247;28;20428;-92
2020/12/12 17:40:06;;;;;;;46.17;21.63;;;10.00;90.10;;;;;;5032910;28;20433;-92
2020/12/12 17:42:32;;;;;;;125.50;58.38;;;10.00;90.10;;;;;;5027530;28;20033;-92
2020/12/12 17:44:58;;;;;;;48.63;21.63;;;9.90;90.10;;;;;;5012667;28;20026;-92
2020/12/12 17:47:23;;;;;;;41.45;19.80;;;10.00;90.10;;;;;;5030066;28;20071;-91
2020/12/12 17:49:50;;;;;;;43.40;18.50;;;10.00;90.10;;;;;;5030562;28;20021;-93
2020/12/12 17:52:16;;;;;;;36.78;15.90;;;10.00;90.10;;;;;;5013781;28;20101;-93
2020/12/12 17:54:41;;;;;;;26.70;12.80;;;10.00;90.10;;;;;;5034340;28;20109;-91
2020/12/12 17:57:07;;;;;;;35.08;17.38;;;10.00;90.10;;;;;;5026036;28;20549;-92
2020/12/12 17:59:34;;;;;;;32.60;15.93;;;10.00;90.00;;;;;;5037603;28;20032;-93
2020/12/12 18:02:02;;;;;;;30.65;14.95;;;10.00;90.10;;;;;;5030703;28;20024;-94
2020/12/12 18:04:29;;;;;;;31.63;15.35;;;10.10;90.10;;;;;;5020598;28;20067;-93
2020/12/12 18:06:55;;;;;;;31.05;14.95;;;10.10;90.10;;;;;;5035869;28;20040;-92
2020/12/12 18:09:20;;;;;;;473.95;178.95;;;10.10;90.10;;;;;;5033345;28;20160;-90
2020/12/12 18:11:46;;;;;;;164.13;70.40;;;10.10;90.10;;;;;;5026385;28;20056;-92
2020/12/12 18:14:11;;;;;;;96.65;44.45;;;10.10;90.10;;;;;;5030227;28;20099;-94
2020/12/12 18:16:38;;;;;;;60.90;28.30;;;10.10;90.00;;;;;;5024696;28;20030;-91
2020/12/12 18:19:03;;;;;;;44.78;20.83;;;10.10;90.00;;;;;;5009868;28;20113;-92
2020/12/12 18:21:29;;;;;;;39.22;17.60;;;10.00;90.00;;;;;;5023358;28;20108;-92
2020/12/12 18:23:55;;;;;;;22.65;11.77;;;9.90;90.00;;;;;;5008139;28;20056;-92
2020/12/12 18:26:22;;;;;;;51.60;31.05;;;10.00;90.10;;;;;;5026410;28;20118;-91
2020/12/12 18:28:49;;;;;;;76.13;43.97;;;10.00;90.10;;;;;;5025232;28;20056;-92
2020/12/12 18:31:17;;;;;;;151.48;83.25;;;10.00;90.10;;;;;;5010659;28;20132;-88
2020/12/12 18:33:44;;;;;;;85.53;49.20;;;10.00;90.10;;;;;;5017502;28;20064;-89
2020/12/12 18:36:11;;;;;;;58.45;34.03;;;10.00;90.10;;;;;;5020358;28;20128;-91
2020/12/12 18:38:43;;;;;;;51.40;31.73;;;10.00;90.00;;;;;;5025685;28;20021;-91
2020/12/12 18:41:11;;;;;;;35.70;21.10;;;10.00;90.00;;;;;;5026524;28;20587;-92
2020/12/12 18:43:37;;;;;;;98.72;77.40;;;10.00;90.00;;;;;;5046240;28;20025;-89
2020/12/12 18:46:03;;;;;;;42.40;25.50;;;10.00;90.10;;;;;;5033856;28;20039;-88
2020/12/12 18:48:29;;;;;;;37.90;22.25;;;10.00;90.00;;;;;;5028701;28;20025;-91
2020/12/12 18:50:55;;;;;;;31.45;17.13;;;10.00;90.10;;;;;;5021830;28;20026;-89
2020/12/12 18:53:21;;;;;;;29.42;16.05;;;10.00;90.10;;;;;;5025072;28;20091;-91
2020/12/12 18:55:47;;;;;;;14.57;8.75;;;10.00;90.10;;;;;;5026073;28;20044;-91
2020/12/12 18:58:13;;;;;;;20.50;10.68;;;10.00;90.10;;;;;;5027673;28;20091;-90
2020/12/12 19:00:39;;;;;;;19.60;10.57;;;10.00;90.10;;;;;;5012403;28;20025;-88
2020/12/12 19:03:04;;;;;;;28.85;17.42;;;10.00;90.10;;;;;;5026520;28;20056;-89
2020/12/12 19:05:33;;;;;;;33.20;18.55;;;10.00;90.10;;;;;;5030181;28;20025;-92
2020/12/12 19:08:00;;;;;;;29.02;15.57;;;10.00;90.10;;;;;;5026807;28;20033;-87
2020/12/12 19:10:28;;;;;;;30.67;14.82;;;10.00;90.10;;;;;;5024240;28;20120;-87
2020/12/12 19:12:54;;;;;;;27.73;13.32;;;10.00;90.10;;;;;;5008711;28;20091;-88
2020/12/12 19:15:21;;;;;;;27.00;14.65;;;10.00;90.10;;;;;;5010804;28;20025;-90
2020/12/12 19:17:48;;;;;;;22.92;12.55;;;10.00;90.10;;;;;;5031139;28;20018;-88
2020/12/12 19:20:17;;;;;;;26.95;15.50;;;10.00;90.10;;;;;;5034243;28;20073;-88
2020/12/12 19:22:43;;;;;;;24.70;14.02;;;10.00;90.10;;;;;;5020642;28;20030;-88
2020/12/12 19:25:09;;;;;;;20.45;12.10;;;10.00;90.10;;;;;;5015872;28;20033;-88
2020/12/12 19:27:36;;;;;;;22.27;12.40;;;10.00;90.10;;;;;;5030890;28;20108;-88
2020/12/12 19:30:01;;;;;;;15.55;9.35;;;10.00;90.00;;;;;;5027240;28;20034;-89
2020/12/12 19:32:27;;;;;;;19.20;11.32;;;10.00;90.00;;;;;;5032206;28;20040;-88
2020/12/12 19:34:52;;;;;;;16.02;9.50;;;10.00;90.00;;;;;;5035677;28;20041;-90
2020/12/12 19:37:21;;;;;;;23.80;11.93;;;10.00;90.00;;;;;;5041095;28;20033;-91
2020/12/12 19:39:47;;;;;;;17.90;9.90;;;10.00;90.00;;;;;;5023769;28;20025;-92
2020/12/12 19:42:13;;;;;;;12.93;7.45;;;10.00;90.10;;;;;;5046289;28;20030;-90
2020/12/12 19:44:39;;;;;;;17.27;10.23;;;10.00;90.00;;;;;;5032963;28;20096;-91
2020/12/12 19:47:05;;;;;;;21.00;10.52;;;10.00;90.00;;;;;;5054832;28;20081;-90
2020/12/12 19:49:32;;;;;;;17.67;10.50;;;10.00;90.00;;;;;;5044394;28;20038;-87
2020/12/12 19:51:58;;;;;;;22.27;12.50;;;10.00;90.00;;;;;;5018219;28;20069;-90